McGrath, Alaska
Current Conditions -  °F | °C
As of 7:53 PM on Wednesday 22 Oct 2014 (Local Time) from PAMC Reporting Station
Overcast Overcast  
Wind Chill: -5°   Ceiling: 4200
Heat Index: -1°   Visibility: 10mi
Dew Point: -6°   Wind: 8mph
Humidity: 67%   Direction: 10°N
Pressure: 29.74"   Gusts: NA
Location:  62.96°N, 155.6°W
Report Text: PAMC 230353Z AUTO 01007KT 10SM OVC042 M01/M06 A2974 RMK SLP078 T10061061 TSNO VIA AUTODIAL
Loading
Personal Weather Stations






























Interactive Weather Map
Tropical Storm Tracking
New forecast layout! Learn more

10-Day Weather Forecast

Advertisements
Track Severe Weather on mobile